sensor_id;sensor_type;location;lat;lon;timestamp;temperature;humidity
57664;DHT22;43493;53.098;6.064;2022-07-23T00:01:17;15.50;99.90
57664;DHT22;43493;53.098;6.064;2022-07-23T00:03:43;15.40;99.90
57664;DHT22;43493;53.098;6.064;2022-07-23T00:06:09;15.40;99.90
57664;DHT22;43493;53.098;6.064;2022-07-23T00:08:35;15.40;99.90
57664;DHT22;43493;53.098;6.064;2022-07-23T00:11:01;15.30;99.90
57664;DHT22;43493;53.098;6.064;2022-07-23T00:15:53;15.30;99.90
57664;DHT22;43493;53.098;6.064;2022-07-23T00:18:19;15.20;99.90
57664;DHT22;43493;53.098;6.064;2022-07-23T00:20:44;15.30;99.90
57664;DHT22;43493;53.098;6.064;2022-07-23T00:23:10;15.30;99.90
57664;DHT22;43493;53.098;6.064;2022-07-23T00:25:36;15.40;99.90
57664;DHT22;43493;53.098;6.064;2022-07-23T00:28:03;15.30;99.90
57664;DHT22;43493;53.098;6.064;2022-07-23T00:30:30;15.30;99.90
57664;DHT22;43493;53.098;6.064;2022-07-23T00:33:02;15.20;99.90
57664;DHT22;43493;53.098;6.064;2022-07-23T00:35:31;15.20;99.90
57664;DHT22;43493;53.098;6.064;2022-07-23T00:37:57;15.20;99.90
57664;DHT22;43493;53.098;6.064;2022-07-23T00:40:24;15.20;99.90
57664;DHT22;43493;53.098;6.064;2022-07-23T00:42:50;15.20;99.90
57664;DHT22;43493;53.098;6.064;2022-07-23T00:45:16;15.10;99.90
57664;DHT22;43493;53.098;6.064;2022-07-23T00:47:42;15.10;99.90
57664;DHT22;43493;53.098;6.064;2022-07-23T00:50:09;15.00;99.90
57664;DHT22;43493;53.098;6.064;2022-07-23T00:52:35;15.10;99.90
57664;DHT22;43493;53.098;6.064;2022-07-23T00:55:02;15.00;99.90
57664;DHT22;43493;53.098;6.064;2022-07-23T00:57:28;15.00;99.90
57664;DHT22;43493;53.098;6.064;2022-07-23T00:59:54;15.00;99.90
57664;DHT22;43493;53.098;6.064;2022-07-23T01:02:20;15.10;99.90
57664;DHT22;43493;53.098;6.064;2022-07-23T01:04:45;15.00;99.90
57664;DHT22;43493;53.098;6.064;2022-07-23T01:07:11;15.00;99.90
57664;DHT22;43493;53.098;6.064;2022-07-23T01:09:37;15.00;99.90
57664;DHT22;43493;53.098;6.064;2022-07-23T01:12:03;15.00;99.90
57664;DHT22;43493;53.098;6.064;2022-07-23T01:14:29;15.00;99.90
57664;DHT22;43493;53.098;6.064;2022-07-23T01:16:55;14.90;99.90
57664;DHT22;43493;53.098;6.064;2022-07-23T01:19:21;14.80;99.90
57664;DHT22;43493;53.098;6.064;2022-07-23T01:21:49;14.80;99.90
57664;DHT22;43493;53.098;6.064;2022-07-23T01:24:15;14.80;99.90
57664;DHT22;43493;53.098;6.064;2022-07-23T01:26:45;14.80;99.90
57664;DHT22;43493;53.098;6.064;2022-07-23T01:29:12;14.80;99.90
57664;DHT22;43493;53.098;6.064;2022-07-23T01:34:04;14.80;99.90
57664;DHT22;43493;53.098;6.064;2022-07-23T01:36:31;14.80;99.90
57664;DHT22;43493;53.098;6.064;2022-07-23T01:38:57;14.70;99.90
57664;DHT22;43493;53.098;6.064;2022-07-23T01:41:23;14.70;99.90
57664;DHT22;43493;53.098;6.064;2022-07-23T01:43:48;14.70;99.90
57664;DHT22;43493;53.098;6.064;2022-07-23T01:46:14;14.70;99.90
57664;DHT22;43493;53.098;6.064;2022-07-23T01:48:40;14.60;99.90
57664;DHT22;43493;53.098;6.064;2022-07-23T01:51:06;14.60;99.90
57664;DHT22;43493;53.098;6.064;2022-07-23T01:53:32;14.60;99.90
57664;DHT22;43493;53.098;6.064;2022-07-23T01:55:58;14.60;99.90
57664;DHT22;43493;53.098;6.064;2022-07-23T01:58:25;14.50;99.90
57664;DHT22;43493;53.098;6.064;2022-07-23T02:00:50;14.50;99.90
57664;DHT22;43493;53.098;6.064;2022-07-23T02:03:16;14.40;99.90
57664;DHT22;43493;53.098;6.064;2022-07-23T02:05:42;14.40;99.90
57664;DHT22;43493;53.098;6.064;2022-07-23T02:08:08;14.40;99.90
57664;DHT22;43493;53.098;6.064;2022-07-23T02:10:33;14.40;99.90
57664;DHT22;43493;53.098;6.064;2022-07-23T02:12:59;14.40;99.90
57664;DHT22;43493;53.098;6.064;2022-07-23T02:15:25;14.40;99.90
57664;DHT22;43493;53.098;6.064;2022-07-23T02:17:50;14.50;99.90
57664;DHT22;43493;53.098;6.064;2022-07-23T02:20:16;14.40;99.90
57664;DHT22;43493;53.098;6.064;2022-07-23T02:22:42;14.40;99.90
57664;DHT22;43493;53.098;6.064;2022-07-23T02:25:08;14.40;99.90
57664;DHT22;43493;53.098;6.064;2022-07-23T02:27:35;14.30;99.90
57664;DHT22;43493;53.098;6.064;2022-07-23T02:30:01;14.30;99.90
57664;DHT22;43493;53.098;6.064;2022-07-23T02:32:27;14.30;99.90
57664;DHT22;43493;53.098;6.064;2022-07-23T02:34:53;14.30;99.90
57664;DHT22;43493;53.098;6.064;2022-07-23T02:37:18;14.30;99.90
57664;DHT22;43493;53.098;6.064;2022-07-23T02:39:44;14.20;99.90
57664;DHT22;43493;53.098;6.064;2022-07-23T02:42:10;14.20;99.90
57664;DHT22;43493;53.098;6.064;2022-07-23T02:44:36;14.20;99.90
57664;DHT22;43493;53.098;6.064;2022-07-23T02:47:02;14.20;99.90
57664;DHT22;43493;53.098;6.064;2022-07-23T02:49:28;14.10;99.90
57664;DHT22;43493;53.098;6.064;2022-07-23T02:51:54;14.10;99.90
57664;DHT22;43493;53.098;6.064;2022-07-23T02:54:19;14.10;99.90
57664;DHT22;43493;53.098;6.064;2022-07-23T02:56:45;14.00;99.90
57664;DHT22;43493;53.098;6.064;2022-07-23T02:59:11;14.00;99.90
57664;DHT22;43493;53.098;6.064;2022-07-23T03:01:37;14.00;99.90
57664;DHT22;43493;53.098;6.064;2022-07-23T03:04:03;14.00;99.90
57664;DHT22;43493;53.098;6.064;2022-07-23T03:06:28;14.00;99.90
57664;DHT22;43493;53.098;6.064;2022-07-23T03:08:54;13.90;99.90
57664;DHT22;43493;53.098;6.064;2022-07-23T03:11:20;13.90;99.90
57664;DHT22;43493;53.098;6.064;2022-07-23T03:13:46;13.90;99.90
57664;DHT22;43493;53.098;6.064;2022-07-23T03:16:11;13.90;99.90
57664;DHT22;43493;53.098;6.064;2022-07-23T03:18:37;13.90;99.90
57664;DHT22;43493;53.098;6.064;2022-07-23T03:21:03;13.80;99.90
57664;DHT22;43493;53.098;6.064;2022-07-23T03:23:29;13.80;99.90
57664;DHT22;43493;53.098;6.064;2022-07-23T03:25:55;13.80;99.90
57664;DHT22;43493;53.098;6.064;2022-07-23T03:28:20;13.80;99.90
57664;DHT22;43493;53.098;6.064;2022-07-23T03:30:46;13.80;99.90
57664;DHT22;43493;53.098;6.064;2022-07-23T03:33:13;13.80;99.90
57664;DHT22;43493;53.098;6.064;2022-07-23T03:35:39;13.80;99.90
57664;DHT22;43493;53.098;6.064;2022-07-23T03:38:05;13.80;99.90
57664;DHT22;43493;53.098;6.064;2022-07-23T03:40:31;13.80;99.90
57664;DHT22;43493;53.098;6.064;2022-07-23T03:42:56;13.70;99.90
57664;DHT22;43493;53.098;6.064;2022-07-23T03:45:22;13.70;99.90
57664;DHT22;43493;53.098;6.064;2022-07-23T03:47:48;13.80;99.90
57664;DHT22;43493;53.098;6.064;2022-07-23T03:50:14;13.80;99.90
57664;DHT22;43493;53.098;6.064;2022-07-23T03:52:39;13.80;99.90
57664;DHT22;43493;53.098;6.064;2022-07-23T03:55:06;13.70;99.90
57664;DHT22;43493;53.098;6.064;2022-07-23T03:57:32;13.70;99.90
57664;DHT22;43493;53.098;6.064;2022-07-23T03:59:58;13.80;99.90
57664;DHT22;43493;53.098;6.064;2022-07-23T04:02:24;13.80;99.90
57664;DHT22;43493;53.098;6.064;2022-07-23T04:04:49;13.70;99.90
57664;DHT22;43493;53.098;6.064;2022-07-23T04:07:15;13.80;99.90
57664;DHT22;43493;53.098;6.064;2022-07-23T04:09:43;13.80;99.90
57664;DHT22;43493;53.098;6.064;2022-07-23T04:12:09;13.80;99.90
57664;DHT22;43493;53.098;6.064;2022-07-23T04:14:35;13.80;99.90
57664;DHT22;43493;53.098;6.064;2022-07-23T04:17:01;13.80;99.90
57664;DHT22;43493;53.098;6.064;2022-07-23T04:19:27;13.90;99.90
57664;DHT22;43493;53.098;6.064;2022-07-23T04:21:52;13.90;99.90
57664;DHT22;43493;53.098;6.064;2022-07-23T04:24:18;14.00;99.90
57664;DHT22;43493;53.098;6.064;2022-07-23T04:26:45;14.00;99.90
57664;DHT22;43493;53.098;6.064;2022-07-23T04:29:10;14.00;99.90
57664;DHT22;43493;53.098;6.064;2022-07-23T04:31:36;14.00;99.90
57664;DHT22;43493;53.098;6.064;2022-07-23T04:34:02;14.10;99.90
57664;DHT22;43493;53.098;6.064;2022-07-23T04:36:28;14.10;99.90
57664;DHT22;43493;53.098;6.064;2022-07-23T04:38:54;14.10;99.90
57664;DHT22;43493;53.098;6.064;2022-07-23T04:41:20;14.10;99.90
57664;DHT22;43493;53.098;6.064;2022-07-23T04:43:46;14.10;99.90
57664;DHT22;43493;53.098;6.064;2022-07-23T04:46:12;14.20;99.90
57664;DHT22;43493;53.098;6.064;2022-07-23T04:48:37;14.10;99.90
57664;DHT22;43493;53.098;6.064;2022-07-23T04:51:03;14.20;99.90
57664;DHT22;43493;53.098;6.064;2022-07-23T04:53:29;14.20;99.90
57664;DHT22;43493;53.098;6.064;2022-07-23T04:55:55;14.10;99.90
57664;DHT22;43493;53.098;6.064;2022-07-23T04:58:21;14.20;99.90
57664;DHT22;43493;53.098;6.064;2022-07-23T05:00:47;14.20;99.90
57664;DHT22;43493;53.098;6.064;2022-07-23T05:03:13;14.20;99.90
57664;DHT22;43493;53.098;6.064;2022-07-23T05:05:38;14.30;99.90
57664;DHT22;43493;53.098;6.064;2022-07-23T05:08:04;14.40;99.90
57664;DHT22;43493;53.098;6.064;2022-07-23T05:10:31;14.50;99.90
57664;DHT22;43493;53.098;6.064;2022-07-23T05:12:56;14.50;99.90
57664;DHT22;43493;53.098;6.064;2022-07-23T05:15:22;14.60;99.90
57664;DHT22;43493;53.098;6.064;2022-07-23T05:17:48;14.70;99.90
57664;DHT22;43493;53.098;6.064;2022-07-23T05:20:14;14.80;99.90
57664;DHT22;43493;53.098;6.064;2022-07-23T05:22:40;15.00;99.90
57664;DHT22;43493;53.098;6.064;2022-07-23T05:25:06;15.10;99.90
57664;DHT22;43493;53.098;6.064;2022-07-23T05:27:32;15.30;99.90
57664;DHT22;43493;53.098;6.064;2022-07-23T05:29:57;15.40;99.90
57664;DHT22;43493;53.098;6.064;2022-07-23T05:32:23;15.50;99.90
57664;DHT22;43493;53.098;6.064;2022-07-23T05:34:49;15.60;99.90
57664;DHT22;43493;53.098;6.064;2022-07-23T05:37:16;15.80;99.90
57664;DHT22;43493;53.098;6.064;2022-07-23T05:39:41;15.90;99.90
57664;DHT22;43493;53.098;6.064;2022-07-23T05:42:07;16.10;99.90
57664;DHT22;43493;53.098;6.064;2022-07-23T05:44:33;16.20;99.90
57664;DHT22;43493;53.098;6.064;2022-07-23T05:46:59;16.40;99.90
57664;DHT22;43493;53.098;6.064;2022-07-23T05:49:25;16.50;99.90
57664;DHT22;43493;53.098;6.064;2022-07-23T05:51:50;16.60;99.90
57664;DHT22;43493;53.098;6.064;2022-07-23T05:54:16;16.90;99.90
57664;DHT22;43493;53.098;6.064;2022-07-23T05:56:42;17.80;99.90
57664;DHT22;43493;53.098;6.064;2022-07-23T05:59:07;18.70;99.90
57664;DHT22;43493;53.098;6.064;2022-07-23T06:01:33;21.00;99.90
57664;DHT22;43493;53.098;6.064;2022-07-23T06:03:59;21.90;99.90
57664;DHT22;43493;53.098;6.064;2022-07-23T06:06:25;22.80;99.90
57664;DHT22;43493;53.098;6.064;2022-07-23T06:08:51;23.70;95.50
57664;DHT22;43493;53.098;6.064;2022-07-23T06:11:16;24.10;99.90
57664;DHT22;43493;53.098;6.064;2022-07-23T06:13:42;25.10;80.40
57664;DHT22;43493;53.098;6.064;2022-07-23T06:16:08;25.70;82.10
57664;DHT22;43493;53.098;6.064;2022-07-23T07:46:18;26.10;45.40
57664;DHT22;43493;53.098;6.064;2022-07-23T07:48:44;26.10;45.60
57664;DHT22;43493;53.098;6.064;2022-07-23T07:51:10;25.90;47.20
57664;DHT22;43493;53.098;6.064;2022-07-23T07:53:35;25.70;47.40
57664;DHT22;43493;53.098;6.064;2022-07-23T07:56:01;25.30;46.50
57664;DHT22;43493;53.098;6.064;2022-07-23T07:58:27;25.10;47.50
57664;DHT22;43493;53.098;6.064;2022-07-23T08:00:52;25.10;47.80
57664;DHT22;43493;53.098;6.064;2022-07-23T08:03:18;24.40;50.10
57664;DHT22;43493;53.098;6.064;2022-07-23T08:05:44;24.40;49.50
57664;DHT22;43493;53.098;6.064;2022-07-23T08:08:09;24.20;49.40
57664;DHT22;43493;53.098;6.064;2022-07-23T08:10:40;23.80;49.80
57664;DHT22;43493;53.098;6.064;2022-07-23T08:13:06;23.70;50.00
57664;DHT22;43493;53.098;6.064;2022-07-23T08:15:32;23.60;50.60
57664;DHT22;43493;53.098;6.064;2022-07-23T08:17:57;23.20;51.90
57664;DHT22;43493;53.098;6.064;2022-07-23T08:20:24;23.10;52.40
57664;DHT22;43493;53.098;6.064;2022-07-23T08:22:55;23.10;53.20
57664;DHT22;43493;53.098;6.064;2022-07-23T08:27:55;23.00;54.30
57664;DHT22;43493;53.098;6.064;2022-07-23T08:30:21;22.90;54.70
57664;DHT22;43493;53.098;6.064;2022-07-23T08:32:53;22.80;55.50
57664;DHT22;43493;53.098;6.064;2022-07-23T08:35:33;22.70;56.50
57664;DHT22;43493;53.098;6.064;2022-07-23T08:38:01;22.70;57.70
57664;DHT22;43493;53.098;6.064;2022-07-23T08:40:29;22.60;57.90
57664;DHT22;43493;53.098;6.064;2022-07-23T08:42:56;22.60;58.10
57664;DHT22;43493;53.098;6.064;2022-07-23T08:45:23;22.50;58.50
57664;DHT22;43493;53.098;6.064;2022-07-23T08:47:50;22.50;58.70
57664;DHT22;43493;53.098;6.064;2022-07-23T08:50:16;22.30;58.60
57664;DHT22;43493;53.098;6.064;2022-07-23T08:52:42;22.20;59.10
57664;DHT22;43493;53.098;6.064;2022-07-23T08:55:08;22.10;60.30
57664;DHT22;43493;53.098;6.064;2022-07-23T08:57:34;21.90;60.80
57664;DHT22;43493;53.098;6.064;2022-07-23T09:00:00;21.90;61.40
57664;DHT22;43493;53.098;6.064;2022-07-23T09:02:26;21.90;62.60
57664;DHT22;43493;53.098;6.064;2022-07-23T09:04:52;21.80;64.40
57664;DHT22;43493;53.098;6.064;2022-07-23T09:07:18;21.90;65.20
57664;DHT22;43493;53.098;6.064;2022-07-23T09:09:44;21.90;64.80
57664;DHT22;43493;53.098;6.064;2022-07-23T09:12:10;22.00;64.80
57664;DHT22;43493;53.098;6.064;2022-07-23T09:14:44;22.00;65.20
57664;DHT22;43493;53.098;6.064;2022-07-23T09:17:14;22.10;65.20
57664;DHT22;43493;53.098;6.064;2022-07-23T09:19:40;22.10;66.20
57664;DHT22;43493;53.098;6.064;2022-07-23T09:22:26;22.30;66.10
57664;DHT22;43493;53.098;6.064;2022-07-23T09:25:12;22.50;65.40
57664;DHT22;43493;53.098;6.064;2022-07-23T09:27:58;22.70;65.80
57664;DHT22;43493;53.098;6.064;2022-07-23T09:30:27;22.70;65.60
57664;DHT22;43493;53.098;6.064;2022-07-23T09:33:13;22.80;66.70
57664;DHT22;43493;53.098;6.064;2022-07-23T09:35:53;22.80;66.30
57664;DHT22;43493;53.098;6.064;2022-07-23T09:38:21;22.90;66.30
57664;DHT22;43493;53.098;6.064;2022-07-23T09:41:08;22.90;65.90
57664;DHT22;43493;53.098;6.064;2022-07-23T09:43:34;23.00;66.20
57664;DHT22;43493;53.098;6.064;2022-07-23T09:46:19;22.90;66.10
57664;DHT22;43493;53.098;6.064;2022-07-23T09:48:46;22.90;65.60
57664;DHT22;43493;53.098;6.064;2022-07-23T09:51:12;22.90;67.20
57664;DHT22;43493;53.098;6.064;2022-07-23T09:53:40;22.80;67.40
57664;DHT22;43493;53.098;6.064;2022-07-23T09:56:07;22.90;67.80
57664;DHT22;43493;53.098;6.064;2022-07-23T09:58:34;22.80;67.00
57664;DHT22;43493;53.098;6.064;2022-07-23T10:01:09;22.90;68.00
57664;DHT22;43493;53.098;6.064;2022-07-23T10:03:35;22.90;67.90
57664;DHT22;43493;53.098;6.064;2022-07-23T10:06:01;22.90;68.50
57664;DHT22;43493;53.098;6.064;2022-07-23T10:08:27;23.00;68.10
57664;DHT22;43493;53.098;6.064;2022-07-23T10:10:54;23.00;68.90
57664;DHT22;43493;53.098;6.064;2022-07-23T10:13:20;23.10;68.00
57664;DHT22;43493;53.098;6.064;2022-07-23T10:15:59;23.20;67.70
57664;DHT22;43493;53.098;6.064;2022-07-23T10:18:25;23.20;68.00
57664;DHT22;43493;53.098;6.064;2022-07-23T10:20:51;23.30;67.10
57664;DHT22;43493;53.098;6.064;2022-07-23T10:23:27;23.20;67.60
57664;DHT22;43493;53.098;6.064;2022-07-23T10:37:07;23.00;73.30
57664;DHT22;43493;53.098;6.064;2022-07-23T10:39:37;23.00;72.80
57664;DHT22;43493;53.098;6.064;2022-07-23T10:42:11;22.90;72.20
57664;DHT22;43493;53.098;6.064;2022-07-23T10:44:40;22.90;73.00
57664;DHT22;43493;53.098;6.064;2022-07-23T10:47:06;23.00;72.80
57664;DHT22;43493;53.098;6.064;2022-07-23T10:49:37;23.00;73.70
57664;DHT22;43493;53.098;6.064;2022-07-23T10:52:25;22.90;73.40
57664;DHT22;43493;53.098;6.064;2022-07-23T10:54:54;22.90;74.30
57664;DHT22;43493;53.098;6.064;2022-07-23T10:57:29;22.90;74.40
57664;DHT22;43493;53.098;6.064;2022-07-23T11:02:30;22.80;75.00
57664;DHT22;43493;53.098;6.064;2022-07-23T11:05:06;22.80;76.60
57664;DHT22;43493;53.098;6.064;2022-07-23T11:07:33;22.80;76.90
57664;DHT22;43493;53.098;6.064;2022-07-23T11:09:58;22.80;77.60
57664;DHT22;43493;53.098;6.064;2022-07-23T11:25:34;22.70;79.90
57664;DHT22;43493;53.098;6.064;2022-07-23T11:28:32;22.70;77.80
57664;DHT22;43493;53.098;6.064;2022-07-23T11:30:58;22.80;79.50
57664;DHT22;43493;53.098;6.064;2022-07-23T11:33:23;22.80;79.70
57664;DHT22;43493;53.098;6.064;2022-07-23T11:36:00;22.90;78.90
57664;DHT22;43493;53.098;6.064;2022-07-23T11:38:27;23.00;78.00
57664;DHT22;43493;53.098;6.064;2022-07-23T11:40:55;23.20;78.00
57664;DHT22;43493;53.098;6.064;2022-07-23T11:43:24;23.20;75.20
57664;DHT22;43493;53.098;6.064;2022-07-23T11:45:57;23.30;75.50
57664;DHT22;43493;53.098;6.064;2022-07-23T11:48:26;23.40;74.60
57664;DHT22;43493;53.098;6.064;2022-07-23T11:50:53;23.30;76.00
57664;DHT22;43493;53.098;6.064;2022-07-23T11:53:29;23.20;74.70
57664;DHT22;43493;53.098;6.064;2022-07-23T11:56:07;23.20;77.40
57664;DHT22;43493;53.098;6.064;2022-07-23T11:58:34;23.10;77.10
57664;DHT22;43493;53.098;6.064;2022-07-23T12:01:00;23.10;75.30
57664;DHT22;43493;53.098;6.064;2022-07-23T12:03:26;23.20;76.10
57664;DHT22;43493;53.098;6.064;2022-07-23T12:05:56;23.10;74.50
57664;DHT22;43493;53.098;6.064;2022-07-23T12:08:23;23.10;76.60
57664;DHT22;43493;53.098;6.064;2022-07-23T12:10:49;23.10;76.00
57664;DHT22;43493;53.098;6.064;2022-07-23T12:13:19;23.00;75.90
57664;DHT22;43493;53.098;6.064;2022-07-23T12:15:47;23.00;75.80
57664;DHT22;43493;53.098;6.064;2022-07-23T12:18:21;23.00;76.50
57664;DHT22;43493;53.098;6.064;2022-07-23T12:20:54;23.00;76.90
57664;DHT22;43493;53.098;6.064;2022-07-23T12:23:22;23.00;78.70
57664;DHT22;43493;53.098;6.064;2022-07-23T12:25:51;23.10;79.40
57664;DHT22;43493;53.098;6.064;2022-07-23T12:28:20;23.00;78.60
57664;DHT22;43493;53.098;6.064;2022-07-23T12:30:48;22.90;79.60
57664;DHT22;43493;53.098;6.064;2022-07-23T12:33:35;23.00;80.50
57664;DHT22;43493;53.098;6.064;2022-07-23T12:36:04;23.00;79.60
57664;DHT22;43493;53.098;6.064;2022-07-23T12:38:47;23.00;80.40
57664;DHT22;43493;53.098;6.064;2022-07-23T12:41:14;22.90;81.90
57664;DHT22;43493;53.098;6.064;2022-07-23T12:43:42;23.00;82.10
57664;DHT22;43493;53.098;6.064;2022-07-23T12:48:36;22.90;81.80
57664;DHT22;43493;53.098;6.064;2022-07-23T12:51:04;22.80;82.70
57664;DHT22;43493;53.098;6.064;2022-07-23T12:53:57;22.70;84.50
57664;DHT22;43493;53.098;6.064;2022-07-23T12:58:57;22.70;84.30
57664;DHT22;43493;53.098;6.064;2022-07-23T13:01:27;22.70;83.30
57664;DHT22;43493;53.098;6.064;2022-07-23T13:06:42;22.60;84.60
57664;DHT22;43493;53.098;6.064;2022-07-23T13:09:11;22.70;84.40
57664;DHT22;43493;53.098;6.064;2022-07-23T13:11:39;22.70;85.20
57664;DHT22;43493;53.098;6.064;2022-07-23T13:14:06;22.70;83.50
57664;DHT22;43493;53.098;6.064;2022-07-23T13:16:33;22.90;85.10
57664;DHT22;43493;53.098;6.064;2022-07-23T13:18:59;23.10;84.90
57664;DHT22;43493;53.098;6.064;2022-07-23T13:21:27;23.10;83.90
57664;DHT22;43493;53.098;6.064;2022-07-23T13:23:54;23.20;82.90
57664;DHT22;43493;53.098;6.064;2022-07-23T13:26:20;23.20;83.70
57664;DHT22;43493;53.098;6.064;2022-07-23T13:28:46;23.30;84.50
57664;DHT22;43493;53.098;6.064;2022-07-23T13:31:13;23.30;84.20
57664;DHT22;43493;53.098;6.064;2022-07-23T13:33:38;23.30;82.80
57664;DHT22;43493;53.098;6.064;2022-07-23T13:36:04;23.40;82.00
57664;DHT22;43493;53.098;6.064;2022-07-23T13:38:30;23.40;81.70
57664;DHT22;43493;53.098;6.064;2022-07-23T13:40:56;23.40;81.90
57664;DHT22;43493;53.098;6.064;2022-07-23T13:43:23;23.30;82.90
57664;DHT22;43493;53.098;6.064;2022-07-23T13:45:50;23.20;83.80
57664;DHT22;43493;53.098;6.064;2022-07-23T13:48:17;23.20;81.90
57664;DHT22;43493;53.098;6.064;2022-07-23T13:50:43;23.10;82.60
57664;DHT22;43493;53.098;6.064;2022-07-23T13:53:12;23.10;83.40
57664;DHT22;43493;53.098;6.064;2022-07-23T13:55:38;23.00;82.50
57664;DHT22;43493;53.098;6.064;2022-07-23T13:58:05;23.00;83.40
57664;DHT22;43493;53.098;6.064;2022-07-23T14:00:32;22.90;85.60
57664;DHT22;43493;53.098;6.064;2022-07-23T14:02:58;22.90;86.30
57664;DHT22;43493;53.098;6.064;2022-07-23T14:05:24;22.80;85.60
57664;DHT22;43493;53.098;6.064;2022-07-23T14:07:50;22.70;85.60
57664;DHT22;43493;53.098;6.064;2022-07-23T14:10:18;22.60;86.70
57664;DHT22;43493;53.098;6.064;2022-07-23T14:12:45;22.60;88.90
57664;DHT22;43493;53.098;6.064;2022-07-23T14:15:12;22.50;87.60
57664;DHT22;43493;53.098;6.064;2022-07-23T14:17:39;22.60;90.30
57664;DHT22;43493;53.098;6.064;2022-07-23T14:20:06;22.50;89.50
57664;DHT22;43493;53.098;6.064;2022-07-23T14:22:32;22.50;89.40
57664;DHT22;43493;53.098;6.064;2022-07-23T14:24:58;22.60;89.40
57664;DHT22;43493;53.098;6.064;2022-07-23T14:27:25;22.60;89.70
57664;DHT22;43493;53.098;6.064;2022-07-23T14:29:51;22.70;89.90
57664;DHT22;43493;53.098;6.064;2022-07-23T14:32:17;22.70;90.70
57664;DHT22;43493;53.098;6.064;2022-07-23T14:34:43;22.60;90.40
57664;DHT22;43493;53.098;6.064;2022-07-23T14:37:10;22.70;90.70
57664;DHT22;43493;53.098;6.064;2022-07-23T14:39:37;22.80;89.70
57664;DHT22;43493;53.098;6.064;2022-07-23T14:42:04;22.80;88.00
57664;DHT22;43493;53.098;6.064;2022-07-23T14:44:29;22.80;88.20
57664;DHT22;43493;53.098;6.064;2022-07-23T14:46:55;22.80;88.80
57664;DHT22;43493;53.098;6.064;2022-07-23T14:49:21;22.80;88.50
57664;DHT22;43493;53.098;6.064;2022-07-23T14:51:47;22.80;90.80
57664;DHT22;43493;53.098;6.064;2022-07-23T14:54:14;22.80;90.70
57664;DHT22;43493;53.098;6.064;2022-07-23T14:56:41;22.80;91.10
57664;DHT22;43493;53.098;6.064;2022-07-23T14:59:07;22.80;90.60
57664;DHT22;43493;53.098;6.064;2022-07-23T15:01:33;22.90;90.40
57664;DHT22;43493;53.098;6.064;2022-07-23T15:03:59;22.90;89.70
57664;DHT22;43493;53.098;6.064;2022-07-23T15:06:25;23.00;88.80
57664;DHT22;43493;53.098;6.064;2022-07-23T15:08:51;22.90;88.30
57664;DHT22;43493;53.098;6.064;2022-07-23T15:11:17;22.90;88.50
57664;DHT22;43493;53.098;6.064;2022-07-23T15:13:42;22.90;88.90
57664;DHT22;43493;53.098;6.064;2022-07-23T15:16:08;22.90;88.60
57664;DHT22;43493;53.098;6.064;2022-07-23T15:18:34;23.00;89.10
57664;DHT22;43493;53.098;6.064;2022-07-23T15:21:01;23.00;88.70
57664;DHT22;43493;53.098;6.064;2022-07-23T15:23:26;22.90;88.60
57664;DHT22;43493;53.098;6.064;2022-07-23T15:25:54;22.90;88.90
57664;DHT22;43493;53.098;6.064;2022-07-23T15:28:20;22.90;89.60
57664;DHT22;43493;53.098;6.064;2022-07-23T15:30:46;22.80;89.30
57664;DHT22;43493;53.098;6.064;2022-07-23T15:33:12;22.80;89.90
57664;DHT22;43493;53.098;6.064;2022-07-23T15:35:37;22.80;89.90
57664;DHT22;43493;53.098;6.064;2022-07-23T15:38:03;22.70;90.40
57664;DHT22;43493;53.098;6.064;2022-07-23T15:40:29;22.70;90.70
57664;DHT22;43493;53.098;6.064;2022-07-23T15:42:54;22.80;90.50
57664;DHT22;43493;53.098;6.064;2022-07-23T15:45:20;22.90;90.10
57664;DHT22;43493;53.098;6.064;2022-07-23T15:47:47;22.90;89.40
57664;DHT22;43493;53.098;6.064;2022-07-23T15:50:14;23.00;89.50
57664;DHT22;43493;53.098;6.064;2022-07-23T15:52:40;23.10;89.60
57664;DHT22;43493;53.098;6.064;2022-07-23T15:55:06;23.10;88.90
57664;DHT22;43493;53.098;6.064;2022-07-23T15:57:32;23.10;88.60
57664;DHT22;43493;53.098;6.064;2022-07-23T15:59:58;23.10;87.20
57664;DHT22;43493;53.098;6.064;2022-07-23T16:02:24;23.10;86.70
57664;DHT22;43493;53.098;6.064;2022-07-23T16:04:50;23.00;87.60
57664;DHT22;43493;53.098;6.064;2022-07-23T16:07:17;22.90;86.40
57664;DHT22;43493;53.098;6.064;2022-07-23T16:09:43;22.90;88.10
57664;DHT22;43493;53.098;6.064;2022-07-23T16:12:09;22.80;88.20
57664;DHT22;43493;53.098;6.064;2022-07-23T16:14:35;22.80;89.20
57664;DHT22;43493;53.098;6.064;2022-07-23T16:17:01;22.80;90.10
57664;DHT22;43493;53.098;6.064;2022-07-23T16:19:26;22.80;90.50
57664;DHT22;43493;53.098;6.064;2022-07-23T16:21:52;22.80;90.00
57664;DHT22;43493;53.098;6.064;2022-07-23T16:24:18;22.80;89.50
57664;DHT22;43493;53.098;6.064;2022-07-23T16:26:44;22.80;89.90
57664;DHT22;43493;53.098;6.064;2022-07-23T16:29:11;22.80;89.50
57664;DHT22;43493;53.098;6.064;2022-07-23T16:31:38;22.80;87.40
57664;DHT22;43493;53.098;6.064;2022-07-23T16:34:04;22.70;88.70
57664;DHT22;43493;53.098;6.064;2022-07-23T16:36:30;22.70;89.80
57664;DHT22;43493;53.098;6.064;2022-07-23T16:38:56;22.70;90.40
57664;DHT22;43493;53.098;6.064;2022-07-23T16:41:23;22.70;90.80
57664;DHT22;43493;53.098;6.064;2022-07-23T16:43:49;22.70;91.10
57664;DHT22;43493;53.098;6.064;2022-07-23T16:46:15;22.70;90.80
57664;DHT22;43493;53.098;6.064;2022-07-23T16:48:41;22.70;91.00
57664;DHT22;43493;53.098;6.064;2022-07-23T16:51:07;22.80;91.10
57664;DHT22;43493;53.098;6.064;2022-07-23T16:53:34;22.80;91.20
57664;DHT22;43493;53.098;6.064;2022-07-23T16:56:00;22.80;90.50
57664;DHT22;43493;53.098;6.064;2022-07-23T16:58:25;22.80;90.70
57664;DHT22;43493;53.098;6.064;2022-07-23T17:00:51;22.70;90.70
57664;DHT22;43493;53.098;6.064;2022-07-23T17:03:17;22.70;90.80
57664;DHT22;43493;53.098;6.064;2022-07-23T17:05:43;22.70;91.40
57664;DHT22;43493;53.098;6.064;2022-07-23T17:08:09;22.60;91.70
57664;DHT22;43493;53.098;6.064;2022-07-23T17:10:35;22.60;91.30
57664;DHT22;43493;53.098;6.064;2022-07-23T17:13:00;22.60;91.50
57664;DHT22;43493;53.098;6.064;2022-07-23T17:15:26;22.60;92.00
57664;DHT22;43493;53.098;6.064;2022-07-23T17:17:52;22.70;91.70
57664;DHT22;43493;53.098;6.064;2022-07-23T17:20:18;22.70;91.50
57664;DHT22;43493;53.098;6.064;2022-07-23T17:22:44;22.70;91.30
57664;DHT22;43493;53.098;6.064;2022-07-23T17:25:10;22.60;91.10
57664;DHT22;43493;53.098;6.064;2022-07-23T17:27:44;22.60;91.50
57664;DHT22;43493;53.098;6.064;2022-07-23T17:30:11;22.60;92.10
57664;DHT22;43493;53.098;6.064;2022-07-23T17:32:37;22.60;92.20
57664;DHT22;43493;53.098;6.064;2022-07-23T17:35:04;22.60;91.90
57664;DHT22;43493;53.098;6.064;2022-07-23T17:37:29;22.50;91.60
57664;DHT22;43493;53.098;6.064;2022-07-23T17:39:55;22.40;91.90